createdAt,value
2022-09-18T00:00:20.446Z,12.72
2022-09-18T00:05:25.554Z,12.61
2022-09-18T00:10:29.287Z,12.65
2022-09-18T00:15:32.999Z,12.63
2022-09-18T00:20:38.748Z,12.67
2022-09-18T00:25:42.882Z,12.64
2022-09-18T00:30:46.597Z,12.70
2022-09-18T00:35:51.824Z,12.59
2022-09-18T00:40:55.488Z,12.56
2022-09-18T00:46:02.368Z,12.61
2022-09-18T00:51:07.869Z,12.39
2022-09-18T00:56:13.979Z,12.45
2022-09-18T01:01:17.945Z,12.36
2022-09-18T01:06:33.240Z,12.45
2022-09-18T01:11:43.446Z,12.38
2022-09-18T01:16:54.165Z,12.28
2022-09-18T01:22:08.677Z,12.29
2022-09-18T01:27:19.975Z,12.19
2022-09-18T01:32:28.919Z,12.01
2022-09-18T01:37:37.250Z,12.08
2022-09-18T01:42:43.420Z,12.08
2022-09-18T01:47:55.196Z,12.08
2022-09-18T01:53:04.223Z,12.13
2022-09-18T01:58:12.573Z,12.17
2022-09-18T02:03:23.261Z,12.17
2022-09-18T02:08:32.476Z,12.23
2022-09-18T02:13:40.267Z,12.22
2022-09-18T02:18:49.735Z,12.23
2022-09-18T02:23:59.337Z,12.27
2022-09-18T02:29:05.863Z,12.26
2022-09-18T02:34:13.822Z,12.26
2022-09-18T02:39:33.983Z,12.24
2022-09-18T02:44:48.578Z,12.13
2022-09-18T02:50:07.934Z,12.18
2022-09-18T02:55:15.566Z,12.16
2022-09-18T03:00:20.290Z,12.21
2022-09-18T03:05:25.844Z,12.21
2022-09-18T03:10:30.266Z,12.19
2022-09-18T03:15:34.178Z,12.18
2022-09-18T03:20:40.364Z,12.21
2022-09-18T03:25:44.203Z,12.21
2022-09-18T03:30:49.943Z,12.22
2022-09-18T03:35:55.152Z,12.23
2022-09-18T03:40:59.736Z,12.22
2022-09-18T03:46:03.500Z,12.11
2022-09-18T03:51:08.720Z,12.01
2022-09-18T03:56:12.631Z,12.09
2022-09-18T04:01:19.567Z,12.03
2022-09-18T04:06:27.719Z,11.90
2022-09-18T04:11:36.171Z,11.90
2022-09-18T04:16:39.920Z,11.89
2022-09-18T04:21:46.156Z,11.92
2022-09-18T04:26:50.951Z,11.89
2022-09-18T04:31:55.448Z,11.89
2022-09-18T04:37:01.033Z,11.92
2022-09-18T04:42:05.815Z,11.88
2022-09-18T04:47:10.009Z,11.91
2022-09-18T04:52:16.767Z,11.90
2022-09-18T04:57:21.091Z,11.86
2022-09-18T05:02:24.977Z,11.89
2022-09-18T05:07:31.718Z,11.87
2022-09-18T05:12:35.600Z,11.73
2022-09-18T05:17:40.812Z,11.80
2022-09-18T05:22:47.886Z,11.89
2022-09-18T05:27:55.277Z,11.91
2022-09-18T05:33:01.517Z,11.89
2022-09-18T05:38:07.483Z,11.93
2022-09-18T05:43:11.530Z,11.89
2022-09-18T05:48:15.461Z,11.88
2022-09-18T05:53:22.624Z,11.93
2022-09-18T05:58:27.085Z,11.82
2022-09-18T06:03:31.578Z,11.93
2022-09-18T06:08:37.389Z,11.93
2022-09-18T06:13:41.467Z,11.93
2022-09-18T06:18:45.725Z,12.05
2022-09-18T06:23:50.841Z,11.97
2022-09-18T06:28:55.659Z,12.08
2022-09-18T06:33:59.517Z,12.18
2022-09-18T06:39:04.747Z,12.22
2022-09-18T06:44:09.330Z,11.97
2022-09-18T06:49:13.578Z,12.15
2022-09-18T06:54:19.964Z,12.24
2022-09-18T06:59:25.242Z,12.29
2022-09-18T07:04:29.027Z,12.37
2022-09-18T07:09:35.490Z,12.45
2022-09-18T07:14:39.615Z,12.53
2022-09-18T07:19:44.519Z,12.53
2022-09-18T07:24:50.062Z,12.63
2022-09-18T07:29:53.934Z,12.80
2022-09-18T07:34:57.787Z,12.92
2022-09-18T07:40:03.817Z,13.02
2022-09-18T07:45:14.434Z,13.05
2022-09-18T07:50:18.539Z,13.08
2022-09-18T07:55:27.789Z,13.15
2022-09-18T08:00:35.604Z,13.20
2022-09-18T08:05:39.615Z,13.30
2022-09-18T08:10:46.402Z,13.38
2022-09-18T08:15:51.121Z,13.30
2022-09-18T08:20:57.069Z,13.25
2022-09-18T08:26:03.067Z,13.08
2022-09-18T08:31:08.225Z,13.02
2022-09-18T08:36:12.180Z,13.11
2022-09-18T08:41:28.487Z,13.26
2022-09-18T08:46:37.758Z,13.31
2022-09-18T08:51:53.371Z,13.21
2022-09-18T08:56:59.095Z,13.20
2022-09-18T09:02:19.147Z,13.17
2022-09-18T09:07:43.467Z,13.22
2022-09-18T09:12:58.011Z,13.26
2022-09-18T09:18:16.365Z,13.37
2022-09-18T09:23:30.113Z,13.28
2022-09-18T09:28:45.532Z,13.41
2022-09-18T09:33:55.862Z,13.39
2022-09-18T09:39:09.668Z,13.41
2022-09-18T09:44:35.336Z,13.48
2022-09-18T09:49:47.896Z,13.71
2022-09-18T09:54:56.618Z,13.83
2022-09-18T10:00:10.258Z,14.00
2022-09-18T10:05:26.672Z,14.06
2022-09-18T10:10:38.761Z,14.11
2022-09-18T10:15:46.054Z,14.16
2022-09-18T10:20:54.873Z,14.24
2022-09-18T10:26:01.564Z,14.29
2022-09-18T10:31:11.016Z,14.79
2022-09-18T10:36:24.356Z,15.06
2022-09-18T10:41:35.093Z,15.06
2022-09-18T10:46:52.196Z,14.60
2022-09-18T10:52:15.915Z,14.74
2022-09-18T10:57:28.264Z,14.77
2022-09-18T11:02:39.960Z,14.87
2022-09-18T11:07:48.685Z,14.70
2022-09-18T11:12:56.112Z,14.61
2022-09-18T11:18:06.592Z,14.40
2022-09-18T11:23:17.321Z,14.03
2022-09-18T11:28:24.439Z,13.77
2022-09-18T11:33:33.514Z,13.48
2022-09-18T11:38:41.199Z,13.51
2022-09-18T11:43:45.466Z,13.56
2022-09-18T11:49:01.269Z,13.70
2022-09-18T11:54:13.873Z,13.78
2022-09-18T11:59:28.040Z,13.76
2022-09-18T12:04:42.865Z,13.89
2022-09-18T12:09:55.052Z,13.84
2022-09-18T12:15:05.846Z,13.80
2022-09-18T12:20:18.602Z,13.77
2022-09-18T12:25:39.797Z,13.74
2022-09-18T12:30:52.149Z,13.77
2022-09-18T12:36:27.071Z,13.66
2022-09-18T12:41:45.291Z,13.59
2022-09-18T12:47:04.558Z,13.41
2022-09-18T12:52:25.808Z,13.42
2022-09-18T12:57:42.552Z,13.26
2022-09-18T13:02:53.572Z,13.41
2022-09-18T13:08:08.133Z,13.32
2022-09-18T13:13:18.633Z,13.43
2022-09-18T13:18:30.830Z,13.48
2022-09-18T13:23:39.660Z,13.44
2022-09-18T13:28:44.941Z,13.52
2022-09-18T13:33:54.656Z,13.41
2022-09-18T13:39:02.964Z,13.38
2022-09-18T13:44:06.703Z,13.37
2022-09-18T13:49:22.913Z,13.32
2022-09-18T13:54:29.574Z,13.22
2022-09-18T13:59:46.663Z,13.23
2022-09-18T14:05:29.775Z,13.22
2022-09-18T14:10:59.529Z,13.19
2022-09-18T14:16:13.218Z,13.12
2022-09-18T14:21:25.207Z,13.03
2022-09-18T14:26:59.703Z,13.11
2022-09-18T14:32:03.929Z,13.04
2022-09-18T14:37:28.146Z,12.98
2022-09-18T14:42:36.115Z,13.01
2022-09-18T14:47:40.650Z,12.96
2022-09-18T14:52:44.628Z,13.01
2022-09-18T14:57:53.478Z,13.08
2022-09-18T15:02:59.826Z,13.10
2022-09-18T15:08:06.575Z,13.03
2022-09-18T15:13:15.981Z,12.98
2022-09-18T15:18:23.519Z,12.97
2022-09-18T15:23:29.017Z,12.92
2022-09-18T15:28:37.655Z,12.94
2022-09-18T15:33:58.066Z,12.92
2022-09-18T15:39:02.672Z,12.88
2022-09-18T15:44:08.232Z,12.91
2022-09-18T15:49:28.255Z,12.90
2022-09-18T15:54:31.998Z,12.91
2022-09-18T15:59:40.579Z,12.78
2022-09-18T16:04:44.531Z,12.80
2022-09-18T16:09:50.238Z,12.82
2022-09-18T16:15:17.245Z,12.74
2022-09-18T16:20:33.985Z,12.80
2022-09-18T16:25:41.407Z,12.82
2022-09-18T16:30:46.883Z,12.82
2022-09-18T16:35:56.816Z,12.78
2022-09-18T16:41:00.843Z,12.75
2022-09-18T16:46:06.319Z,12.73
2022-09-18T16:51:10.123Z,12.76
2022-09-18T16:56:18.424Z,12.68
2022-09-18T17:01:24.401Z,12.51
2022-09-18T17:06:28.147Z,12.53
2022-09-18T17:11:31.947Z,12.39
2022-09-18T17:16:44.573Z,12.25
2022-09-18T17:21:49.030Z,12.23
2022-09-18T17:26:54.044Z,12.17
2022-09-18T17:31:59.784Z,12.17
2022-09-18T17:37:04.321Z,12.17
2022-09-18T17:42:08.302Z,12.17
2022-09-18T17:47:13.435Z,12.05
2022-09-18T17:52:17.391Z,12.10
2022-09-18T17:57:21.119Z,12.08
2022-09-18T18:02:26.338Z,12.02
2022-09-18T18:07:30.067Z,11.92
2022-09-18T18:12:33.838Z,11.90
2022-09-18T18:17:40.302Z,11.80
2022-09-18T18:22:44.263Z,11.66
2022-09-18T18:27:48.040Z,11.63
2022-09-18T18:32:53.103Z,11.69
2022-09-18T18:37:56.873Z,11.62
2022-09-18T18:43:00.716Z,11.61
2022-09-18T18:48:09.723Z,11.58
2022-09-18T18:53:14.358Z,11.53
2022-09-18T18:58:18.217Z,11.44
2022-09-18T19:03:23.437Z,11.30
2022-09-18T19:08:27.852Z,11.19
2022-09-18T19:13:44.234Z,11.10
2022-09-18T19:18:54.104Z,11.02
2022-09-18T19:23:59.256Z,10.94
2022-09-18T19:29:06.927Z,10.90
2022-09-18T19:34:13.156Z,10.82
2022-09-18T19:39:18.417Z,10.81
2022-09-18T19:44:27.713Z,10.71
2022-09-18T19:49:37.280Z,10.61
2022-09-18T19:54:41.028Z,10.58
2022-09-18T19:59:46.962Z,10.57
2022-09-18T20:04:52.152Z,10.57
2022-09-18T20:09:55.923Z,10.52
2022-09-18T20:15:00.618Z,10.44
2022-09-18T20:20:08.847Z,10.43
2022-09-18T20:25:13.702Z,10.33
2022-09-18T20:30:18.120Z,10.30
2022-09-18T20:35:23.244Z,10.22
2022-09-18T20:40:27.279Z,10.25
2022-09-18T20:45:31.320Z,10.19
2022-09-18T20:50:39.325Z,10.16
2022-09-18T20:55:42.981Z,10.12
2022-09-18T21:00:47.981Z,9.93
2022-09-18T21:06:12.754Z,9.99
2022-09-18T21:11:19.553Z,9.96
2022-09-18T21:16:26.169Z,9.98
2022-09-18T21:21:34.387Z,9.96
2022-09-18T21:26:40.247Z,9.92
2022-09-18T21:31:44.727Z,9.83
2022-09-18T21:36:49.978Z,9.82
2022-09-18T21:41:53.774Z,9.80
2022-09-18T21:46:59.166Z,9.77
2022-09-18T21:52:07.083Z,9.75
2022-09-18T21:57:10.823Z,9.71
2022-09-18T22:02:15.085Z,9.74
2022-09-18T22:07:20.191Z,9.63
2022-09-18T22:12:24.040Z,9.60
2022-09-18T22:17:28.172Z,9.60
2022-09-18T22:22:33.389Z,9.56
2022-09-18T22:27:37.699Z,9.54
2022-09-18T22:32:41.417Z,9.52
2022-09-18T22:37:46.380Z,9.44
2022-09-18T22:42:50.135Z,9.39
2022-09-18T22:47:53.812Z,9.31
2022-09-18T22:52:58.855Z,9.28
2022-09-18T22:58:04.525Z,9.29
2022-09-18T23:03:08.291Z,9.26
2022-09-18T23:08:13.361Z,9.25
2022-09-18T23:13:17.442Z,9.22
2022-09-18T23:18:21.123Z,9.22
2022-09-18T23:23:26.191Z,9.15
2022-09-18T23:28:32.844Z,9.15
2022-09-18T23:33:36.710Z,9.08
2022-09-18T23:38:42.394Z,9.07
2022-09-18T23:43:47.394Z,9.05
2022-09-18T23:48:55.037Z,8.97
2022-09-18T23:54:02.046Z,8.94
2022-09-18T23:59:07.459Z,8.91
